Time;durP1;ratioP1;P1;durP2;ratioP2;P2;SDS_P1;SDS_P2;PMS_P1;PMS_P2;Temp;Humidity;BMP_temperature;BMP_pressure;BME280_temperature;BME280_humidity;BME280_pressure;Samples;Min_cycle;Max_cycle;Signal;HPM_P1;HPM_P2
2023/08/15 00:01:19;;;;;;;4.25;3.67;;;;;;;;;;5031544;28;20040;-79
2023/08/15 00:03:46;;;;;;;6.22;4.00;;;;;;;;;;5017959;28;20044;-80
2023/08/15 00:06:12;;;;;;;4.03;3.60;;;;;;;;;;5032226;28;20017;-79
2023/08/15 00:08:37;;;;;;;5.13;3.80;;;;;;;;;;5034968;28;20029;-80
2023/08/15 00:11:03;;;;;;;7.97;3.65;;;;;;;;;;5036693;28;20521;-80
2023/08/15 00:13:28;;;;;;;4.03;3.63;;;;;;;;;;5014360;28;20030;-80
2023/08/15 00:15:53;;;;;;;4.38;3.80;;;;;;;;;;5015344;28;20049;-79
2023/08/15 00:18:18;;;;;;;8.02;4.28;;;;;;;;;;5028289;28;20021;-80
2023/08/15 00:20:47;;;;;;;5.78;3.45;;;;;;;;;;5020972;28;20444;-80
2023/08/15 00:23:12;;;;;;;3.67;3.28;;;;;;;;;;5021604;28;20041;-80
2023/08/15 00:25:37;;;;;;;3.80;3.45;;;;;;;;;;5018100;28;20041;-80
2023/08/15 00:28:03;;;;;;;5.50;3.17;;;;;;;;;;5022970;28;20037;-79
2023/08/15 00:30:28;;;;;;;3.85;3.03;;;;;;;;;;5035846;28;20117;-80
2023/08/15 00:32:53;;;;;;;4.00;3.42;;;;;;;;;;5038524;28;20056;-80
2023/08/15 00:35:19;;;;;;;4.43;3.00;;;;;;;;;;5022544;28;20393;-79
2023/08/15 00:37:44;;;;;;;3.28;2.97;;;;;;;;;;5018091;28;20034;-80
2023/08/15 00:40:10;;;;;;;3.78;2.75;;;;;;;;;;5035586;28;20129;-79
2023/08/15 00:42:35;;;;;;;3.50;3.13;;;;;;;;;;5022808;28;20044;-79
2023/08/15 00:45:00;;;;;;;4.90;2.75;;;;;;;;;;5035398;28;20029;-80
2023/08/15 00:47:26;;;;;;;4.13;2.88;;;;;;;;;;5018842;28;20281;-80
2023/08/15 00:49:52;;;;;;;4.18;2.95;;;;;;;;;;5033413;28;20460;-80
2023/08/15 00:52:18;;;;;;;2.90;2.70;;;;;;;;;;5034725;28;20030;-80
2023/08/15 00:54:46;;;;;;;3.45;2.88;;;;;;;;;;5017686;28;20128;-80
2023/08/15 00:57:13;;;;;;;4.65;2.88;;;;;;;;;;5015995;28;20025;-80
2023/08/15 00:59:44;;;;;;;4.65;2.78;;;;;;;;;;5016631;28;20448;-80
2023/08/15 01:02:10;;;;;;;3.22;2.63;;;;;;;;;;5036143;28;20033;-80
2023/08/15 01:04:36;;;;;;;3.00;2.50;;;;;;;;;;5042515;28;20770;-80
2023/08/15 01:07:02;;;;;;;5.30;2.80;;;;;;;;;;5018370;28;20040;-80
2023/08/15 01:09:28;;;;;;;2.88;2.60;;;;;;;;;;5038636;28;20124;-79
2023/08/15 01:12:18;;;;;;;3.08;2.70;;;;;;;;;;5039286;28;20021;-79
2023/08/15 01:14:51;;;;;;;3.05;2.55;;;;;;;;;;5037279;28;20454;-79
2023/08/15 01:17:25;;;;;;;3.63;2.60;;;;;;;;;;5035232;28;20084;-80
2023/08/15 01:19:54;;;;;;;8.18;2.97;;;;;;;;;;5036039;28;20033;-79
2023/08/15 01:22:28;;;;;;;3.00;2.65;;;;;;;;;;5016846;28;20042;-79
2023/08/15 01:24:54;;;;;;;4.90;2.53;;;;;;;;;;5018738;28;20037;-80
2023/08/15 01:27:19;;;;;;;4.53;2.80;;;;;;;;;;5034036;28;20044;-80
2023/08/15 01:29:44;;;;;;;5.60;2.60;;;;;;;;;;5018660;28;20017;-79
2023/08/15 01:32:19;;;;;;;3.90;2.45;;;;;;;;;;5021992;28;20033;-79
2023/08/15 01:35:08;;;;;;;3.33;2.58;;;;;;;;;;5036170;28;20033;-79
2023/08/15 01:37:36;;;;;;;2.50;2.30;;;;;;;;;;5017148;28;20029;-79
2023/08/15 01:40:03;;;;;;;4.25;2.47;;;;;;;;;;5036957;28;20037;-79
2023/08/15 01:42:29;;;;;;;3.00;2.60;;;;;;;;;;5018700;28;20437;-80
2023/08/15 01:44:56;;;;;;;7.50;2.92;;;;;;;;;;5019518;28;20060;-80
2023/08/15 01:47:22;;;;;;;5.07;2.70;;;;;;;;;;5036857;28;20140;-80
2023/08/15 01:49:48;;;;;;;7.75;2.72;;;;;;;;;;5016011;28;20076;-80
2023/08/15 01:52:13;;;;;;;7.75;2.78;;;;;;;;;;5034192;28;20289;-79
2023/08/15 01:54:38;;;;;;;2.53;2.33;;;;;;;;;;5019004;28;20093;-79
2023/08/15 01:57:04;;;;;;;2.38;2.17;;;;;;;;;;5018469;28;20403;-80
2023/08/15 01:59:29;;;;;;;3.55;2.20;;;;;;;;;;5034942;28;20595;-79
2023/08/15 02:01:54;;;;;;;2.55;2.00;;;;;;;;;;5016240;28;20038;-79
2023/08/15 02:04:20;;;;;;;4.78;2.40;;;;;;;;;;5017267;28;20037;-79
2023/08/15 02:06:45;;;;;;;2.55;2.35;;;;;;;;;;5034567;28;20029;-79
2023/08/15 02:09:10;;;;;;;3.30;2.60;;;;;;;;;;5033967;28;20498;-79
2023/08/15 02:11:36;;;;;;;2.13;2.00;;;;;;;;;;5033635;28;20044;-80
2023/08/15 02:14:01;;;;;;;4.07;2.78;;;;;;;;;;5018693;28;20132;-79
2023/08/15 02:16:26;;;;;;;2.67;2.47;;;;;;;;;;5016216;28;20041;-79
2023/08/15 02:18:51;;;;;;;3.25;2.45;;;;;;;;;;5013956;28;20029;-80
2023/08/15 02:21:17;;;;;;;5.88;2.55;;;;;;;;;;5033987;28;20041;-80
2023/08/15 02:23:42;;;;;;;2.60;2.40;;;;;;;;;;5018120;28;20089;-80
2023/08/15 02:26:07;;;;;;;3.08;2.80;;;;;;;;;;5016134;28;20030;-80
2023/08/15 02:28:33;;;;;;;6.70;2.92;;;;;;;;;;5018066;28;20095;-79
2023/08/15 02:30:58;;;;;;;3.83;2.92;;;;;;;;;;5016037;28;20033;-80
2023/08/15 02:33:23;;;;;;;6.82;2.83;;;;;;;;;;5033021;28;20037;-79
2023/08/15 02:35:51;;;;;;;2.78;2.58;;;;;;;;;;5016985;28;20025;-80
2023/08/15 02:38:16;;;;;;;3.30;3.00;;;;;;;;;;5032686;28;20110;-80
2023/08/15 02:40:42;;;;;;;6.10;2.72;;;;;;;;;;5015283;28;20045;-80
2023/08/15 02:43:07;;;;;;;5.38;2.95;;;;;;;;;;5016144;28;20152;-80
2023/08/15 02:45:33;;;;;;;2.45;2.25;;;;;;;;;;5034772;28;20152;-79
2023/08/15 02:47:58;;;;;;;3.92;2.80;;;;;;;;;;5018227;28;20013;-79
2023/08/15 02:50:23;;;;;;;3.42;3.13;;;;;;;;;;5016277;28;20096;-80
2023/08/15 02:52:49;;;;;;;6.47;3.22;;;;;;;;;;5015290;28;20367;-79
2023/08/15 02:55:17;;;;;;;6.22;2.67;;;;;;;;;;5016937;28;20034;-80
2023/08/15 02:57:42;;;;;;;3.28;2.97;;;;;;;;;;5034373;28;20113;-79
2023/08/15 03:00:09;;;;;;;6.30;2.97;;;;;;;;;;5016829;28;20041;-79
2023/08/15 03:02:34;;;;;;;4.15;2.85;;;;;;;;;;5034015;28;20036;-80
2023/08/15 03:05:00;;;;;;;3.00;2.70;;;;;;;;;;5015405;28;20100;-79
2023/08/15 03:07:25;;;;;;;4.22;3.03;;;;;;;;;;5016982;28;20554;-80
2023/08/15 03:09:50;;;;;;;5.57;3.60;;;;;;;;;;5018530;28;20098;-80
2023/08/15 03:12:16;;;;;;;3.22;3.00;;;;;;;;;;5037662;28;20471;-79
2023/08/15 03:14:41;;;;;;;3.15;2.85;;;;;;;;;;5015637;28;20171;-80
2023/08/15 03:17:09;;;;;;;3.80;3.38;;;;;;;;;;5033488;28;20192;-79
2023/08/15 03:19:35;;;;;;;6.32;3.10;;;;;;;;;;5017886;28;20037;-79
2023/08/15 03:22:00;;;;;;;3.78;3.03;;;;;;;;;;5034988;28;20037;-78
2023/08/15 03:24:30;;;;;;;3.33;3.03;;;;;;;;;;5014615;28;20025;-78
2023/08/15 03:26:55;;;;;;;6.72;3.22;;;;;;;;;;5037435;28;20578;-79
2023/08/15 03:29:20;;;;;;;9.40;3.20;;;;;;;;;;5017285;28;20065;-80
2023/08/15 03:31:46;;;;;;;3.08;2.70;;;;;;;;;;5035327;28;20121;-80
2023/08/15 03:34:11;;;;;;;5.65;2.92;;;;;;;;;;5015585;28;20446;-79
2023/08/15 03:36:36;;;;;;;4.78;2.75;;;;;;;;;;5016589;28;20042;-80
2023/08/15 03:39:02;;;;;;;4.85;3.10;;;;;;;;;;5035690;28;20087;-80
2023/08/15 03:41:27;;;;;;;2.72;2.50;;;;;;;;;;5018020;28;20183;-79
2023/08/15 03:43:53;;;;;;;2.60;2.17;;;;;;;;;;5035502;28;20029;-79
2023/08/15 03:46:19;;;;;;;2.97;2.25;;;;;;;;;;5022864;28;20029;-79
2023/08/15 03:48:44;;;;;;;2.55;2.35;;;;;;;;;;5036774;28;20036;-80
2023/08/15 03:51:09;;;;;;;7.13;2.40;;;;;;;;;;5036898;28;20029;-80
2023/08/15 03:53:35;;;;;;;2.10;2.00;;;;;;;;;;5039376;28;20018;-81
2023/08/15 03:56:00;;;;;;;3.20;2.33;;;;;;;;;;5038804;28;20037;-77
2023/08/15 03:58:26;;;;;;;6.38;2.35;;;;;;;;;;5040040;28;20499;-81
2023/08/15 04:00:51;;;;;;;2.30;2.10;;;;;;;;;;5039294;28;20060;-80
2023/08/15 04:03:17;;;;;;;4.10;2.53;;;;;;;;;;5041281;28;20040;-79
2023/08/15 04:05:44;;;;;;;4.93;2.33;;;;;;;;;;5039507;28;20025;-80
2023/08/15 04:08:10;;;;;;;2.53;2.33;;;;;;;;;;5040128;28;20029;-80
2023/08/15 04:10:39;;;;;;;6.93;2.30;;;;;;;;;;5039308;28;20041;-79
2023/08/15 04:13:11;;;;;;;3.70;2.45;;;;;;;;;;5040254;28;20095;-79
2023/08/15 04:15:37;;;;;;;2.63;2.42;;;;;;;;;;5038532;28;20040;-78
2023/08/15 04:18:05;;;;;;;3.00;2.70;;;;;;;;;;5040267;28;20041;-80
2023/08/15 04:20:30;;;;;;;3.70;2.47;;;;;;;;;;5041603;28;20116;-80
2023/08/15 04:22:56;;;;;;;2.92;2.67;;;;;;;;;;5040120;28;20075;-78
2023/08/15 04:25:21;;;;;;;8.48;2.53;;;;;;;;;;5040485;28;20040;-80
2023/08/15 04:27:46;;;;;;;7.65;2.30;;;;;;;;;;5038858;28;20041;-80
2023/08/15 04:30:12;;;;;;;3.17;2.40;;;;;;;;;;5039055;28;20086;-81
2023/08/15 04:32:37;;;;;;;3.00;2.40;;;;;;;;;;5041388;28;20060;-80
2023/08/15 04:35:03;;;;;;;2.97;2.30;;;;;;;;;;5039868;28;20495;-80
2023/08/15 04:37:29;;;;;;;3.40;2.35;;;;;;;;;;5038483;28;20047;-79
2023/08/15 04:40:00;;;;;;;2.53;2.25;;;;;;;;;;5045134;28;20097;-79
2023/08/15 04:42:25;;;;;;;2.35;2.15;;;;;;;;;;5028061;28;20029;-81
2023/08/15 04:44:51;;;;;;;3.35;2.25;;;;;;;;;;5040251;28;20097;-80
2023/08/15 04:47:18;;;;;;;2.05;1.95;;;;;;;;;;5040158;28;20072;-80
2023/08/15 04:49:43;;;;;;;2.95;2.70;;;;;;;;;;5039874;28;20057;-79
2023/08/15 04:52:09;;;;;;;2.67;2.30;;;;;;;;;;5039189;28;20377;-80
2023/08/15 04:54:34;;;;;;;2.47;2.30;;;;;;;;;;5039343;28;20408;-80
2023/08/15 04:56:59;;;;;;;4.75;2.20;;;;;;;;;;5039586;28;20037;-81
2023/08/15 04:59:24;;;;;;;2.03;1.92;;;;;;;;;;5039917;28;20036;-81
2023/08/15 05:01:50;;;;;;;2.03;1.92;;;;;;;;;;5039012;28;20087;-81
2023/08/15 05:04:15;;;;;;;2.78;2.10;;;;;;;;;;5039235;28;20068;-80
2023/08/15 05:06:40;;;;;;;4.75;2.25;;;;;;;;;;5039486;28;20057;-81
2023/08/15 05:09:06;;;;;;;7.00;2.00;;;;;;;;;;5040297;28;20052;-80
2023/08/15 05:11:31;;;;;;;2.60;1.90;;;;;;;;;;5039098;28;20017;-81
2023/08/15 05:14:00;;;;;;;2.00;1.83;;;;;;;;;;5038720;28;20458;-81
2023/08/15 05:16:25;;;;;;;3.90;2.38;;;;;;;;;;5040119;28;20057;-81
2023/08/15 05:18:50;;;;;;;4.63;2.00;;;;;;;;;;5038977;28;20441;-82
2023/08/15 05:21:15;;;;;;;2.22;2.00;;;;;;;;;;5038951;28;20025;-80
2023/08/15 05:23:41;;;;;;;3.47;1.90;;;;;;;;;;5039576;28;20025;-81
2023/08/15 05:26:06;;;;;;;2.25;2.05;;;;;;;;;;5038481;28;20033;-82
2023/08/15 05:28:32;;;;;;;3.90;2.00;;;;;;;;;;5039471;28;20037;-81
2023/08/15 05:30:57;;;;;;;3.60;2.10;;;;;;;;;;5037744;28;20045;-81
2023/08/15 05:33:23;;;;;;;2.70;2.50;;;;;;;;;;5037925;28;20095;-81
2023/08/15 05:35:48;;;;;;;4.35;2.08;;;;;;;;;;5038808;28;20108;-82
2023/08/15 05:38:13;;;;;;;2.33;2.10;;;;;;;;;;5039738;28;20033;-81
2023/08/15 05:40:39;;;;;;;3.45;2.30;;;;;;;;;;5038536;28;20461;-82
2023/08/15 05:43:04;;;;;;;2.97;2.13;;;;;;;;;;5039034;28;20026;-81
2023/08/15 05:45:32;;;;;;;2.15;1.92;;;;;;;;;;5039152;28;20033;-80
2023/08/15 05:48:01;;;;;;;2.20;2.10;;;;;;;;;;5039603;28;20695;-79
2023/08/15 05:50:26;;;;;;;3.40;2.00;;;;;;;;;;5038916;28;20049;-79
2023/08/15 05:52:51;;;;;;;2.00;1.80;;;;;;;;;;5021145;28;20033;-80
2023/08/15 05:55:17;;;;;;;2.50;2.30;;;;;;;;;;5039556;28;20084;-78
2023/08/15 05:57:42;;;;;;;3.38;2.20;;;;;;;;;;5021988;28;20052;-79
2023/08/15 06:00:08;;;;;;;5.53;2.47;;;;;;;;;;5038394;28;20379;-80
2023/08/15 06:02:36;;;;;;;2.40;2.20;;;;;;;;;;5039800;28;20140;-80
2023/08/15 06:05:02;;;;;;;4.53;2.10;;;;;;;;;;5039163;28;20514;-80
2023/08/15 06:07:28;;;;;;;2.38;2.20;;;;;;;;;;5039476;28;20172;-80
2023/08/15 06:09:54;;;;;;;2.40;2.20;;;;;;;;;;5039319;28;20073;-80
2023/08/15 06:12:19;;;;;;;3.40;2.20;;;;;;;;;;5038651;28;20021;-81
2023/08/15 06:14:44;;;;;;;2.35;2.15;;;;;;;;;;5021439;28;20060;-80
2023/08/15 06:17:12;;;;;;;2.58;2.38;;;;;;;;;;5037235;28;20038;-81
2023/08/15 06:19:37;;;;;;;3.05;2.20;;;;;;;;;;5038617;28;20022;-79
2023/08/15 06:22:03;;;;;;;2.60;2.40;;;;;;;;;;5038709;28;20040;-80
2023/08/15 06:24:28;;;;;;;2.40;2.20;;;;;;;;;;5020227;28;20036;-81
2023/08/15 06:26:53;;;;;;;4.05;2.10;;;;;;;;;;5022387;28;20025;-81
2023/08/15 06:29:19;;;;;;;2.60;2.22;;;;;;;;;;5020746;28;20053;-81
2023/08/15 06:31:44;;;;;;;2.10;2.00;;;;;;;;;;5038758;28;20427;-81
2023/08/15 06:34:09;;;;;;;4.18;2.42;;;;;;;;;;5021007;28;20035;-81
2023/08/15 06:36:35;;;;;;;2.72;2.30;;;;;;;;;;5020813;28;20026;-81
2023/08/15 06:39:00;;;;;;;2.25;2.08;;;;;;;;;;5021596;28;20026;-81
2023/08/15 06:41:25;;;;;;;2.58;2.28;;;;;;;;;;5037845;28;20030;-81
2023/08/15 06:43:51;;;;;;;3.45;2.63;;;;;;;;;;5038636;28;20061;-81
2023/08/15 06:46:16;;;;;;;5.18;2.22;;;;;;;;;;5020603;28;20025;-82
2023/08/15 06:48:41;;;;;;;3.17;2.45;;;;;;;;;;5021288;28;20037;-81
2023/08/15 06:51:07;;;;;;;2.63;2.42;;;;;;;;;;5037637;28;20030;-82
2023/08/15 06:53:33;;;;;;;3.25;2.15;;;;;;;;;;5039181;28;20434;-81
2023/08/15 06:55:58;;;;;;;4.07;2.53;;;;;;;;;;5020492;28;20042;-81
2023/08/15 06:58:25;;;;;;;4.22;2.72;;;;;;;;;;5019900;28;20125;-82
2023/08/15 07:00:50;;;;;;;3.53;2.22;;;;;;;;;;5038018;28;20280;-82
2023/08/15 07:03:16;;;;;;;4.47;2.85;;;;;;;;;;5021000;28;20025;-82
2023/08/15 07:05:43;;;;;;;3.88;2.40;;;;;;;;;;5020525;28;20028;-80
2023/08/15 07:08:08;;;;;;;3.85;2.30;;;;;;;;;;5018924;28;20033;-80
2023/08/15 07:10:35;;;;;;;3.42;2.30;;;;;;;;;;5019312;28;20048;-80
2023/08/15 07:13:00;;;;;;;2.55;2.30;;;;;;;;;;5019915;28;20029;-80
2023/08/15 07:15:26;;;;;;;2.40;2.17;;;;;;;;;;5020600;28;20087;-81
2023/08/15 07:17:51;;;;;;;3.88;2.45;;;;;;;;;;5020959;28;20140;-81
2023/08/15 07:20:17;;;;;;;7.20;2.25;;;;;;;;;;5021144;28;20053;-81
2023/08/15 07:22:42;;;;;;;2.92;2.08;;;;;;;;;;5038505;28;20116;-81
2023/08/15 07:25:08;;;;;;;2.67;2.13;;;;;;;;;;5037294;28;20029;-81
2023/08/15 07:27:33;;;;;;;2.13;2.03;;;;;;;;;;5021179;28;20022;-80
2023/08/15 07:29:59;;;;;;;3.47;2.42;;;;;;;;;;5023028;28;20386;-81
2023/08/15 07:32:27;;;;;;;2.72;2.25;;;;;;;;;;5022764;28;20187;-82
2023/08/15 07:34:53;;;;;;;2.38;2.22;;;;;;;;;;5024106;28;20064;-82
2023/08/15 07:37:18;;;;;;;2.45;2.20;;;;;;;;;;5039588;28;20391;-81
2023/08/15 07:39:43;;;;;;;4.57;2.50;;;;;;;;;;5040473;28;20208;-82
2023/08/15 07:42:09;;;;;;;2.63;2.13;;;;;;;;;;5040409;28;20079;-82
2023/08/15 07:44:34;;;;;;;3.83;2.20;;;;;;;;;;5040228;28;20025;-82
2023/08/15 07:46:59;;;;;;;2.47;2.28;;;;;;;;;;5022814;28;20037;-81
2023/08/15 07:49:25;;;;;;;3.88;2.40;;;;;;;;;;5022357;28;20030;-81
2023/08/15 07:51:52;;;;;;;3.33;2.42;;;;;;;;;;5039077;28;20637;-82
2023/08/15 07:54:17;;;;;;;2.83;2.40;;;;;;;;;;5022232;28;20048;-81
2023/08/15 07:56:43;;;;;;;2.78;2.40;;;;;;;;;;5041449;28;20519;-82
2023/08/15 07:59:08;;;;;;;2.85;2.47;;;;;;;;;;5022566;28;20083;-82
2023/08/15 08:01:33;;;;;;;2.85;2.25;;;;;;;;;;5022712;28;20026;-82
2023/08/15 08:04:00;;;;;;;4.10;2.55;;;;;;;;;;5039581;28;20391;-82
2023/08/15 08:06:25;;;;;;;3.88;2.38;;;;;;;;;;5022288;28;20040;-81
2023/08/15 08:08:51;;;;;;;5.90;2.50;;;;;;;;;;5022766;28;20022;-82
2023/08/15 08:11:16;;;;;;;2.85;2.20;;;;;;;;;;5038659;28;20121;-82
2023/08/15 08:13:41;;;;;;;2.63;2.40;;;;;;;;;;5021988;28;20036;-82
2023/08/15 08:16:07;;;;;;;2.42;2.20;;;;;;;;;;5040124;28;20132;-82
2023/08/15 08:18:35;;;;;;;4.20;2.42;;;;;;;;;;5040450;28;20037;-82
2023/08/15 08:21:02;;;;;;;4.78;2.22;;;;;;;;;;5040188;28;20041;-82
2023/08/15 08:23:27;;;;;;;3.90;2.60;;;;;;;;;;5023566;28;20030;-81
2023/08/15 08:25:52;;;;;;;2.63;2.42;;;;;;;;;;5023522;28;20049;-81
2023/08/15 08:28:18;;;;;;;2.75;2.53;;;;;;;;;;5023414;28;20037;-82
2023/08/15 08:30:44;;;;;;;5.00;2.67;;;;;;;;;;5039480;28;20154;-81
2023/08/15 08:33:09;;;;;;;2.50;2.30;;;;;;;;;;5023470;28;20029;-81
2023/08/15 08:35:35;;;;;;;5.10;2.72;;;;;;;;;;5023282;28;20498;-81
2023/08/15 08:38:01;;;;;;;3.17;2.60;;;;;;;;;;5021041;28;20045;-82
2023/08/15 08:40:27;;;;;;;2.83;2.40;;;;;;;;;;5022181;28;20040;-82
2023/08/15 08:42:53;;;;;;;2.60;2.40;;;;;;;;;;5021919;28;20033;-81
2023/08/15 08:45:24;;;;;;;4.20;2.60;;;;;;;;;;5040045;28;20044;-82
2023/08/15 08:47:49;;;;;;;2.70;2.50;;;;;;;;;;5022939;28;20052;-82
2023/08/15 08:50:16;;;;;;;4.55;2.97;;;;;;;;;;5038650;28;20034;-81
2023/08/15 08:52:45;;;;;;;6.43;2.70;;;;;;;;;;5039959;28;20037;-81
2023/08/15 08:55:11;;;;;;;3.90;2.67;;;;;;;;;;5023061;28;20034;-82
2023/08/15 08:57:37;;;;;;;4.55;2.70;;;;;;;;;;5039561;28;20056;-82
2023/08/15 09:00:10;;;;;;;5.43;3.15;;;;;;;;;;5041445;28;20469;-82
2023/08/15 09:02:35;;;;;;;7.97;2.90;;;;;;;;;;5040109;28;20052;-82
2023/08/15 09:05:03;;;;;;;2.90;2.60;;;;;;;;;;5022241;28;20311;-82
2023/08/15 09:07:34;;;;;;;3.40;2.75;;;;;;;;;;5021599;28;20458;-81
2023/08/15 09:09:59;;;;;;;3.28;3.00;;;;;;;;;;5039547;28;20033;-81
2023/08/15 09:12:47;;;;;;;3.08;2.88;;;;;;;;;;5022047;28;20085;-82
2023/08/15 09:15:13;;;;;;;5.22;3.05;;;;;;;;;;5021829;28;20031;-80
2023/08/15 09:17:39;;;;;;;3.47;3.13;;;;;;;;;;5022310;28;20112;-81
2023/08/15 09:20:09;;;;;;;4.25;3.00;;;;;;;;;;5021730;28;20029;-81
2023/08/15 09:22:37;;;;;;;6.82;2.92;;;;;;;;;;5022107;28;20025;-80
2023/08/15 09:25:04;;;;;;;6.88;3.22;;;;;;;;;;5037935;28;20037;-81
2023/08/15 09:27:29;;;;;;;8.15;3.22;;;;;;;;;;5038967;28;20033;-81
2023/08/15 09:29:54;;;;;;;4.78;3.22;;;;;;;;;;5022215;28;20093;-81
2023/08/15 09:32:21;;;;;;;6.07;3.40;;;;;;;;;;5040950;28;20041;-80
2023/08/15 09:34:47;;;;;;;5.05;3.83;;;;;;;;;;5022393;28;20033;-82
2023/08/15 09:37:12;;;;;;;4.00;3.30;;;;;;;;;;5040143;28;20088;-81
2023/08/15 09:39:38;;;;;;;3.45;3.00;;;;;;;;;;5040008;28;20030;-81
2023/08/15 09:42:03;;;;;;;4.15;3.10;;;;;;;;;;5021176;28;20031;-81
2023/08/15 09:44:31;;;;;;;5.07;3.70;;;;;;;;;;5021307;28;20017;-82
2023/08/15 09:46:56;;;;;;;3.50;3.20;;;;;;;;;;5063567;22;20043;-82
2023/08/15 09:49:22;;;;;;;6.93;3.40;;;;;;;;;;5059357;28;20097;-82
2023/08/15 09:51:48;;;;;;;5.20;3.22;;;;;;;;;;5055249;28;20517;-82
2023/08/15 09:54:16;;;;;;;10.15;3.50;;;;;;;;;;5040846;28;20041;-82
2023/08/15 09:56:42;;;;;;;5.32;3.42;;;;;;;;;;5052369;28;20033;-84
2023/08/15 09:59:08;;;;;;;5.65;3.50;;;;;;;;;;5027049;28;20562;-84
2023/08/15 10:01:36;;;;;;;5.05;3.30;;;;;;;;;;5036756;28;20120;-84
2023/08/15 10:04:07;;;;;;;5.18;3.60;;;;;;;;;;5024948;28;20045;-83
2023/08/15 10:06:34;;;;;;;7.55;4.00;;;;;;;;;;5052391;28;20372;-79
2023/08/15 10:09:01;;;;;;;6.78;3.75;;;;;;;;;;5034975;28;20426;-82
2023/08/15 10:11:30;;;;;;;4.65;3.65;;;;;;;;;;5044839;28;20446;-84
2023/08/15 10:13:57;;;;;;;7.50;4.18;;;;;;;;;;5019098;28;20514;-82
2023/08/15 10:16:23;;;;;;;9.63;3.55;;;;;;;;;;5037893;28;20033;-79
2023/08/15 10:18:56;;;;;;;6.28;3.45;;;;;;;;;;5038051;28;20040;-79
2023/08/15 10:21:23;;;;;;;;;;;;;;;;;;5036385;28;20076;-84
2023/08/15 10:23:53;;;;;;;7.63;3.17;;;;;;;;;;5030782;28;19972;-85
2023/08/15 10:26:18;;;;;;;6.15;4.00;;;;;;;;;;5028271;28;20450;-80
2023/08/15 10:28:45;;;;;;;6.70;3.45;;;;;;;;;;5045657;28;20041;-84
2023/08/15 10:31:34;;;;;;;9.95;3.13;;;;;;;;;;5045128;28;20041;-83
2023/08/15 10:34:01;;;;;;;6.93;2.88;;;;;;;;;;5039165;28;20556;-83
2023/08/15 10:36:27;;;;;;;6.28;2.60;;;;;;;;;;5042808;28;20470;-83
2023/08/15 10:38:52;;;;;;;6.38;2.58;;;;;;;;;;5042543;28;20119;-82
2023/08/15 10:41:19;;;;;;;6.05;2.83;;;;;;;;;;5022010;28;20033;-82
2023/08/15 10:43:53;;;;;;;5.22;2.50;;;;;;;;;;5048169;28;20625;-82
2023/08/15 10:46:25;;;;;;;6.97;2.58;;;;;;;;;;5043669;28;20038;-81
2023/08/15 10:48:55;;;;;;;10.80;4.95;;;;;;;;;;5049059;28;20132;-83
2023/08/15 10:51:29;;;;;;;7.03;2.97;;;;;;;;;;5041591;28;20099;-78
2023/08/15 10:53:56;;;;;;;;;;;;;;;;;;5048407;28;20033;-78
2023/08/15 10:56:23;;;;;;;7.50;2.70;;;;;;;;;;5048628;28;19937;-79
2023/08/15 10:58:50;;;;;;;12.90;2.80;;;;;;;;;;5049458;28;20116;-79
2023/08/15 11:01:23;;;;;;;6.35;2.90;;;;;;;;;;5045365;28;20552;-80
2023/08/15 11:03:58;;;;;;;8.40;2.70;;;;;;;;;;5027053;28;20016;-78
2023/08/15 11:06:24;;;;;;;5.90;2.50;;;;;;;;;;5043508;28;20101;-78
2023/08/15 11:08:51;;;;;;;11.60;3.17;;;;;;;;;;5037205;28;20049;-76
2023/08/15 11:11:17;;;;;;;9.90;2.60;;;;;;;;;;5022581;28;20044;-80
2023/08/15 11:13:45;;;;;;;7.68;2.65;;;;;;;;;;5052885;28;20041;-79
2023/08/15 11:16:11;;;;;;;7.38;2.50;;;;;;;;;;5045672;28;20030;-78
2023/08/15 11:18:37;;;;;;;6.47;2.60;;;;;;;;;;5049245;28;20044;-78
2023/08/15 11:21:07;;;;;;;9.48;3.25;;;;;;;;;;5047316;28;20013;-79
2023/08/15 11:23:33;;;;;;;6.40;2.65;;;;;;;;;;5053460;28;20037;-78
2023/08/15 11:26:05;;;;;;;6.60;2.70;;;;;;;;;;5053478;28;20531;-79
2023/08/15 11:28:31;;;;;;;4.53;2.30;;;;;;;;;;5048137;28;20045;-78
2023/08/15 11:31:10;;;;;;;8.77;2.47;;;;;;;;;;5052180;28;20033;-78
2023/08/15 11:33:35;;;;;;;6.32;3.15;;;;;;;;;;5027345;28;20105;-78
2023/08/15 11:36:03;;;;;;;4.13;2.70;;;;;;;;;;5052350;28;20384;-79
2023/08/15 11:38:32;;;;;;;7.72;2.65;;;;;;;;;;5045743;28;20572;-79
2023/08/15 11:41:01;;;;;;;6.72;2.72;;;;;;;;;;5032751;28;20036;-80
2023/08/15 11:43:28;;;;;;;6.28;2.63;;;;;;;;;;5023020;28;20037;-80
2023/08/15 11:45:53;;;;;;;12.45;3.05;;;;;;;;;;5036313;28;20031;-83
2023/08/15 11:48:19;;;;;;;9.27;3.05;;;;;;;;;;5034805;28;20112;-82
2023/08/15 11:50:45;;;;;;;7.43;2.88;;;;;;;;;;5035511;28;20018;-82
2023/08/15 11:53:12;;;;;;;8.18;2.88;;;;;;;;;;5034620;28;20087;-80
2023/08/15 11:55:38;;;;;;;6.95;2.55;;;;;;;;;;5042111;28;20111;-80
2023/08/15 11:58:24;;;;;;;7.82;3.03;;;;;;;;;;5051206;28;20033;-83
2023/08/15 12:01:00;;;;;;;5.68;2.60;;;;;;;;;;5043600;28;20041;-81
2023/08/15 12:03:26;;;;;;;3.95;2.88;;;;;;;;;;5035440;28;20033;-81
2023/08/15 12:05:56;;;;;;;5.55;3.10;;;;;;;;;;5017694;28;20032;-82
2023/08/15 12:08:26;;;;;;;7.05;2.72;;;;;;;;;;5032023;28;20037;-82
2023/08/15 12:10:56;;;;;;;9.68;2.72;;;;;;;;;;5047327;28;20116;-81
2023/08/15 12:13:38;;;;;;;12.15;3.25;;;;;;;;;;5027125;28;20117;-83
2023/08/15 12:16:06;;;;;;;7.50;2.83;;;;;;;;;;5047388;28;20417;-82
2023/08/15 12:18:32;;;;;;;10.98;2.55;;;;;;;;;;5045668;28;20044;-79
2023/08/15 12:20:58;;;;;;;6.38;3.20;;;;;;;;;;5030862;28;20033;-82
2023/08/15 12:23:24;;;;;;;6.18;2.88;;;;;;;;;;5039341;28;20387;-83
2023/08/15 12:25:49;;;;;;;8.82;3.00;;;;;;;;;;5030535;28;20084;-82
2023/08/15 12:28:17;;;;;;;9.50;2.83;;;;;;;;;;5032767;28;20120;-84
2023/08/15 12:30:42;;;;;;;10.13;2.95;;;;;;;;;;5011543;28;20041;-82
2023/08/15 12:33:08;;;;;;;6.63;3.17;;;;;;;;;;5040426;28;20030;-82
2023/08/15 12:35:54;;;;;;;6.80;3.28;;;;;;;;;;5027097;28;20030;-83
2023/08/15 12:38:20;;;;;;;8.48;3.50;;;;;;;;;;5031188;28;20054;-80
2023/08/15 12:40:45;;;;;;;4.30;2.80;;;;;;;;;;5037689;28;20119;-78
2023/08/15 12:43:11;;;;;;;8.13;3.22;;;;;;;;;;5036737;28;20060;-80
2023/08/15 12:45:36;;;;;;;5.00;3.08;;;;;;;;;;5036644;28;20040;-83
2023/08/15 12:48:01;;;;;;;7.68;3.55;;;;;;;;;;5033455;28;20029;-82
2023/08/15 12:50:27;;;;;;;8.65;3.00;;;;;;;;;;5052623;28;20048;-80
2023/08/15 12:52:52;;;;;;;7.13;2.67;;;;;;;;;;5049119;28;20057;-81
2023/08/15 12:55:17;;;;;;;8.75;3.03;;;;;;;;;;5033427;28;20029;-82
2023/08/15 12:57:43;;;;;;;10.25;3.45;;;;;;;;;;5033603;28;20064;-82
2023/08/15 13:00:08;;;;;;;12.23;3.42;;;;;;;;;;5045376;28;20082;-81
2023/08/15 13:02:35;;;;;;;11.43;3.28;;;;;;;;;;5045040;28;20032;-81
2023/08/15 13:05:00;;;;;;;10.25;3.00;;;;;;;;;;5045189;28;20052;-83
2023/08/15 13:07:25;;;;;;;3.33;2.47;;;;;;;;;;5035779;28;20444;-82
2023/08/15 13:09:51;;;;;;;11.32;3.15;;;;;;;;;;5030922;28;20042;-82
2023/08/15 13:12:16;;;;;;;14.70;3.72;;;;;;;;;;5033151;28;20017;-81
2023/08/15 13:14:44;;;;;;;6.57;3.13;;;;;;;;;;5018919;28;20051;-81
2023/08/15 13:17:10;;;;;;;7.90;2.65;;;;;;;;;;5040003;28;20029;-80
2023/08/15 13:19:35;;;;;;;8.98;3.15;;;;;;;;;;5045513;28;20057;-83
2023/08/15 13:22:00;;;;;;;6.15;2.45;;;;;;;;;;5054204;28;20047;-82
2023/08/15 13:24:26;;;;;;;7.53;3.05;;;;;;;;;;5030225;28;20036;-82
2023/08/15 13:26:51;;;;;;;9.50;3.17;;;;;;;;;;5037042;28;20777;-82
2023/08/15 13:29:17;;;;;;;5.93;2.60;;;;;;;;;;5050262;28;20044;-83
2023/08/15 13:31:42;;;;;;;11.38;3.15;;;;;;;;;;5040231;28;20033;-84
2023/08/15 13:34:08;;;;;;;4.80;2.90;;;;;;;;;;5020758;28;20665;-83
2023/08/15 13:36:33;;;;;;;11.75;3.17;;;;;;;;;;5047026;28;20108;-82
2023/08/15 13:39:01;;;;;;;11.30;3.03;;;;;;;;;;5046393;28;20024;-84
2023/08/15 13:41:27;;;;;;;9.07;2.85;;;;;;;;;;5048227;28;20612;-80
2023/08/15 13:43:52;;;;;;;7.03;3.28;;;;;;;;;;5038702;28;20149;-78
2023/08/15 13:46:19;;;;;;;10.38;2.88;;;;;;;;;;5036645;28;20048;-82
2023/08/15 13:48:44;;;;;;;7.03;3.05;;;;;;;;;;5041105;28;20033;-82
2023/08/15 13:51:18;;;;;;;6.93;3.13;;;;;;;;;;5043501;28;20021;-81
2023/08/15 13:53:47;;;;;;;8.13;3.13;;;;;;;;;;5021478;28;20035;-79
2023/08/15 13:56:13;;;;;;;14.52;3.95;;;;;;;;;;5032322;28;20132;-79
2023/08/15 13:58:41;;;;;;;7.93;3.30;;;;;;;;;;5049466;28;20037;-78
2023/08/15 14:01:07;;;;;;;3.40;2.83;;;;;;;;;;5027024;28;20107;-83
2023/08/15 14:03:33;;;;;;;9.30;3.97;;;;;;;;;;5041734;28;20510;-84
2023/08/15 14:05:59;;;;;;;6.75;3.63;;;;;;;;;;5042608;28;20033;-84
2023/08/15 14:08:25;;;;;;;7.55;4.18;;;;;;;;;;5039482;28;20041;-84
2023/08/15 14:10:50;;;;;;;10.65;3.42;;;;;;;;;;5046676;28;20057;-83
2023/08/15 14:13:15;;;;;;;7.93;3.20;;;;;;;;;;5038227;28;20105;-83
2023/08/15 14:15:41;;;;;;;6.47;2.97;;;;;;;;;;5039306;28;20904;-84
2023/08/15 14:18:06;;;;;;;4.20;3.38;;;;;;;;;;5034559;28;20104;-83
2023/08/15 14:20:34;;;;;;;9.80;3.28;;;;;;;;;;5036720;28;20076;-84
2023/08/15 14:22:59;;;;;;;14.38;3.83;;;;;;;;;;5040330;28;20128;-83
2023/08/15 14:25:25;;;;;;;16.67;3.50;;;;;;;;;;5041852;28;20084;-83
2023/08/15 14:27:50;;;;;;;6.32;3.20;;;;;;;;;;5055353;28;20063;-80
2023/08/15 14:30:16;;;;;;;8.05;3.20;;;;;;;;;;5062372;28;20017;-80
2023/08/15 14:32:41;;;;;;;6.65;3.55;;;;;;;;;;5028462;28;20032;-80
2023/08/15 14:35:09;;;;;;;10.68;3.60;;;;;;;;;;5049169;28;20044;-79
2023/08/15 14:37:35;;;;;;;5.57;3.70;;;;;;;;;;5023541;28;20029;-78
2023/08/15 14:40:00;;;;;;;6.60;3.15;;;;;;;;;;5043096;28;20063;-83